Time;durP1;ratioP1;P1;durP2;ratioP2;P2;SDS_P1;SDS_P2;PMS_P1;PMS_P2;Temp;Humidity;BMP_temperature;BMP_pressure;BME280_temperature;BME280_humidity;BME280_pressure;Samples;Min_cycle;Max_cycle;Signal;HPM_P1;HPM_P2
2022/06/15 00:01:42;;;;;;;6.00;5.03;;;9.30;99.90;;;;;;5048883;28;20445;-83
2022/06/15 00:04:08;;;;;;;7.45;5.30;;;9.40;99.90;;;;;;5036189;28;20380;-83
2022/06/15 00:06:38;;;;;;;7.57;5.88;;;9.70;99.90;;;;;;5043493;28;20448;-83
2022/06/15 00:09:04;;;;;;;10.07;7.63;;;9.40;99.90;;;;;;5048080;28;20380;-83
2022/06/15 00:11:34;;;;;;;11.07;9.35;;;9.20;99.90;;;;;;5044276;28;20431;-83
2022/06/15 00:14:10;;;;;;;8.93;8.02;;;9.20;99.90;;;;;;5031802;28;20393;-84
2022/06/15 00:16:36;;;;;;;7.63;5.80;;;9.30;99.90;;;;;;5035260;28;20514;-84
2022/06/15 00:19:04;;;;;;;7.07;4.35;;;9.20;99.90;;;;;;5047865;28;20396;-83
2022/06/15 00:21:30;;;;;;;4.47;3.60;;;9.00;99.90;;;;;;5032870;28;20397;-83
2022/06/15 00:23:57;;;;;;;6.05;4.00;;;9.10;99.90;;;;;;5045432;28;20377;-83
2022/06/15 00:26:23;;;;;;;5.85;4.30;;;9.10;99.90;;;;;;5044196;28;20384;-83
2022/06/15 00:28:53;;;;;;;6.97;5.93;;;9.10;99.90;;;;;;5043935;28;20414;-83
2022/06/15 00:31:20;;;;;;;6.90;5.80;;;9.00;99.90;;;;;;5047077;28;20383;-83
2022/06/15 00:33:45;;;;;;;8.53;6.57;;;9.00;99.90;;;;;;5034687;28;20404;-83
2022/06/15 00:36:14;;;;;;;8.30;6.63;;;8.90;99.90;;;;;;5045372;28;20396;-83
2022/06/15 00:38:47;;;;;;;9.02;7.10;;;8.90;99.90;;;;;;5045818;28;20383;-83
2022/06/15 00:41:16;;;;;;;8.43;7.53;;;8.80;99.90;;;;;;5048068;28;20915;-83
2022/06/15 00:43:45;;;;;;;9.27;8.30;;;8.80;99.90;;;;;;5031063;28;20477;-82
2022/06/15 00:46:37;;;;;;;8.88;7.95;;;9.00;99.90;;;;;;5048768;28;20466;-83
2022/06/15 00:49:30;;;;;;;8.63;7.28;;;9.00;99.90;;;;;;5052526;28;20401;-83
2022/06/15 00:52:09;;;;;;;7.70;6.75;;;8.90;99.90;;;;;;5046534;28;20447;-83
2022/06/15 00:54:36;;;;;;;9.25;6.00;;;9.00;99.90;;;;;;5042647;28;20461;-83
2022/06/15 00:57:03;;;;;;;5.93;5.00;;;9.00;99.90;;;;;;5045163;28;21153;-82
2022/06/15 00:59:33;;;;;;;9.73;5.70;;;8.90;99.90;;;;;;5032693;28;20520;-83
2022/06/15 01:01:59;;;;;;;8.55;5.00;;;8.80;99.90;;;;;;5028275;28;20398;-83
2022/06/15 01:04:30;;;;;;;13.38;5.13;;;8.70;99.90;;;;;;5028801;28;20959;-83
2022/06/15 01:07:27;;;;;;;13.48;5.22;;;8.70;99.90;;;;;;5045292;28;20383;-83
2022/06/15 01:09:59;;;;;;;8.57;5.20;;;8.60;99.90;;;;;;5044035;28;20488;-82
2022/06/15 01:12:34;;;;;;;7.05;5.70;;;8.60;99.90;;;;;;5060122;28;20879;-83
2022/06/15 01:15:05;;;;;;;8.23;6.72;;;8.60;99.90;;;;;;5036915;28;20483;-83
2022/06/15 01:17:49;;;;;;;10.18;8.20;;;8.60;99.90;;;;;;5047762;28;20400;-83
2022/06/15 01:20:27;;;;;;;9.18;7.90;;;8.50;99.90;;;;;;5031525;28;20917;-83
2022/06/15 01:23:27;;;;;;;10.43;8.20;;;8.40;99.90;;;;;;5037232;28;20394;-83
2022/06/15 01:26:14;;;;;;;13.63;9.73;;;8.50;99.90;;;;;;5029947;28;20389;-83
2022/06/15 01:28:54;;;;;;;12.93;9.98;;;8.40;99.90;;;;;;5038642;28;20544;-83
2022/06/15 01:31:41;;;;;;;15.17;10.50;;;8.40;99.90;;;;;;5040842;28;20411;-83
2022/06/15 01:34:45;;;;;;;14.00;10.27;;;8.30;99.90;;;;;;5032207;28;20767;-82
2022/06/15 01:37:27;;;;;;;8.75;7.45;;;8.30;99.90;;;;;;5039824;28;20396;-82
2022/06/15 01:39:56;;;;;;;12.27;9.40;;;8.30;99.90;;;;;;5028740;28;20533;-82
2022/06/15 01:42:27;;;;;;;12.63;9.77;;;8.30;99.90;;;;;;5041865;28;20391;-82
2022/06/15 01:45:00;;;;;;;13.95;10.43;;;8.30;99.90;;;;;;5048418;28;20470;-82
2022/06/15 01:47:30;;;;;;;17.98;12.88;;;8.20;99.90;;;;;;5032006;28;20389;-82
2022/06/15 01:50:04;;;;;;;16.95;12.18;;;8.20;99.90;;;;;;5044080;28;20419;-83
2022/06/15 01:52:34;;;;;;;14.52;10.70;;;8.20;99.90;;;;;;5044114;28;20384;-82
2022/06/15 01:55:13;;;;;;;15.07;9.73;;;8.20;99.90;;;;;;5042830;28;20414;-82
2022/06/15 01:57:41;;;;;;;12.75;8.77;;;8.10;99.90;;;;;;5029902;28;20863;-82
2022/06/15 02:00:13;;;;;;;11.05;8.60;;;8.10;99.90;;;;;;5038395;28;20806;-82
2022/06/15 02:02:44;;;;;;;10.57;8.48;;;8.10;99.90;;;;;;5046279;28;20766;-82
2022/06/15 02:05:30;;;;;;;9.93;7.57;;;8.00;99.90;;;;;;5026986;28;20910;-83
2022/06/15 02:08:22;;;;;;;9.95;6.95;;;8.00;99.90;;;;;;5044069;28;20388;-82
2022/06/15 02:10:53;;;;;;;9.07;6.93;;;8.00;99.90;;;;;;5040003;28;20390;-82
2022/06/15 02:13:31;;;;;;;6.80;4.57;;;7.90;99.90;;;;;;5032637;28;20394;-82
2022/06/15 02:16:04;;;;;;;6.97;4.90;;;8.00;99.90;;;;;;5042321;28;20480;-82
2022/06/15 02:18:33;;;;;;;6.53;5.00;;;8.00;99.90;;;;;;5041669;28;20891;-82
2022/06/15 02:21:06;;;;;;;5.57;4.80;;;7.90;99.90;;;;;;5035212;28;20452;-82
2022/06/15 02:23:33;;;;;;;6.05;4.88;;;7.90;99.90;;;;;;5027002;28;20382;-82
2022/06/15 02:26:01;;;;;;;5.57;5.05;;;7.90;99.90;;;;;;5026539;28;20481;-82
2022/06/15 02:28:32;;;;;;;6.22;4.80;;;7.80;99.90;;;;;;5045124;28;20729;-82
2022/06/15 02:30:57;;;;;;;6.43;4.80;;;7.80;99.90;;;;;;5035612;28;20385;-82
2022/06/15 02:33:28;;;;;;;5.47;4.85;;;7.80;99.90;;;;;;5026304;28;20406;-82
2022/06/15 02:35:54;;;;;;;6.40;5.28;;;7.80;99.90;;;;;;5026807;28;20413;-82
2022/06/15 02:38:20;;;;;;;6.30;4.93;;;7.80;99.90;;;;;;5047043;28;20439;-82
2022/06/15 02:40:46;;;;;;;8.40;5.50;;;7.80;99.90;;;;;;5037138;28;20381;-82
2022/06/15 02:43:14;;;;;;;10.90;5.80;;;7.70;99.90;;;;;;5040437;28;20368;-82
2022/06/15 02:45:41;;;;;;;6.57;5.00;;;7.70;99.90;;;;;;5042226;28;20394;-82
2022/06/15 02:48:09;;;;;;;6.78;5.45;;;7.70;99.90;;;;;;5041220;28;20404;-82
2022/06/15 02:50:41;;;;;;;6.32;5.18;;;7.70;99.90;;;;;;5044582;28;20379;-82
2022/06/15 02:53:11;;;;;;;6.38;5.30;;;7.70;99.90;;;;;;5033821;28;20453;-82
2022/06/15 02:55:37;;;;;;;5.57;4.65;;;7.70;99.90;;;;;;5043902;28;20439;-82
2022/06/15 02:58:14;;;;;;;6.93;5.18;;;7.60;99.90;;;;;;5026976;28;20919;-82
2022/06/15 03:00:41;;;;;;;5.28;4.75;;;7.60;99.90;;;;;;5034072;28;21102;-83
2022/06/15 03:03:07;;;;;;;5.30;4.55;;;7.60;99.90;;;;;;5030023;28;20891;-82
2022/06/15 03:05:33;;;;;;;5.53;4.80;;;7.60;99.90;;;;;;5030206;28;20477;-82
2022/06/15 03:07:58;;;;;;;5.25;4.75;;;7.60;99.90;;;;;;5039118;28;20460;-82
2022/06/15 03:10:24;;;;;;;5.13;4.50;;;7.60;99.90;;;;;;5039893;28;20386;-83
2022/06/15 03:12:50;;;;;;;5.85;4.40;;;7.60;99.90;;;;;;5036071;28;20386;-83
2022/06/15 03:15:16;;;;;;;4.72;4.10;;;7.70;99.90;;;;;;5041113;28;20410;-83
2022/06/15 03:17:42;;;;;;;6.25;4.68;;;7.70;99.90;;;;;;5042319;28;20379;-82
2022/06/15 03:20:10;;;;;;;6.00;4.55;;;7.70;99.90;;;;;;5042721;28;20398;-82
2022/06/15 03:22:36;;;;;;;7.50;4.80;;;7.70;99.90;;;;;;5045544;28;20394;-82
2022/06/15 03:25:03;;;;;;;5.70;4.53;;;7.70;99.90;;;;;;5041827;28;20384;-82
2022/06/15 03:27:29;;;;;;;6.18;4.25;;;7.70;99.90;;;;;;5044660;28;20894;-82
2022/06/15 03:29:55;;;;;;;13.93;5.38;;;7.70;99.90;;;;;;5038198;28;20420;-82
2022/06/15 03:32:20;;;;;;;7.90;4.90;;;7.70;99.90;;;;;;5044334;28;20914;-82
2022/06/15 03:34:46;;;;;;;4.60;4.10;;;7.80;99.90;;;;;;5033474;28;20399;-82
2022/06/15 03:37:12;;;;;;;4.23;3.70;;;7.80;99.90;;;;;;5046111;28;20878;-82
2022/06/15 03:39:37;;;;;;;3.95;3.63;;;7.90;99.90;;;;;;5041971;28;20425;-83
2022/06/15 03:42:08;;;;;;;4.35;3.95;;;8.00;99.90;;;;;;5043226;28;20385;-82
2022/06/15 03:44:34;;;;;;;5.35;3.80;;;8.10;99.90;;;;;;5045710;28;20441;-82
2022/06/15 03:47:00;;;;;;;4.53;3.97;;;8.20;99.90;;;;;;5044360;28;20410;-82
2022/06/15 03:49:25;;;;;;;4.43;3.60;;;8.40;99.90;;;;;;5047372;28;20392;-82
2022/06/15 03:51:51;;;;;;;6.97;4.10;;;8.40;99.90;;;;;;5046864;28;20380;-83
2022/06/15 03:54:16;;;;;;;3.92;3.53;;;8.50;99.90;;;;;;5040061;28;20396;-82
2022/06/15 03:56:49;;;;;;;3.80;3.50;;;8.50;99.90;;;;;;5045808;28;20376;-83
2022/06/15 03:59:15;;;;;;;4.85;4.05;;;8.60;99.90;;;;;;5048841;28;20383;-82
2022/06/15 04:01:41;;;;;;;3.78;3.47;;;8.70;99.90;;;;;;5031601;28;20389;-82
2022/06/15 04:04:06;;;;;;;18.08;4.70;;;8.70;99.90;;;;;;5034365;28;20449;-82
2022/06/15 04:06:33;;;;;;;5.03;3.60;;;8.60;99.90;;;;;;5047443;28;20384;-82
2022/06/15 04:08:58;;;;;;;4.97;3.40;;;8.80;99.90;;;;;;5050207;28;20376;-82
2022/06/15 04:14:10;;;;;;;3.63;3.30;;;9.10;99.90;;;;;;5030942;28;20377;-82
2022/06/15 04:16:36;;;;;;;5.30;3.42;;;9.10;99.90;;;;;;5046683;28;20387;-82
2022/06/15 04:19:04;;;;;;;8.43;3.45;;;;;;;;;;5037057;28;20408;-83
2022/06/15 04:21:33;;;;;;;4.20;3.05;;;;;;;;;;5043527;28;20457;-82
2022/06/15 04:24:01;;;;;;;3.00;2.70;;;;;;;;;;5029115;28;20755;-83
2022/06/15 04:26:27;;;;;;;3.60;3.20;;;;;;;;;;5064956;28;20416;-83
2022/06/15 04:28:53;;;;;;;4.90;3.03;;;;;;;;;;5037840;28;20417;-83
2022/06/15 04:31:19;;;;;;;3.60;2.83;;;;;;;;;;5028667;28;20875;-83
2022/06/15 04:33:45;;;;;;;19.88;4.40;;;10.20;99.90;;;;;;5032542;28;20405;-82
2022/06/15 04:36:15;;;;;;;7.38;3.00;;;10.40;99.90;;;;;;5043364;28;20443;-82
2022/06/15 04:38:41;;;;;;;14.13;3.65;;;10.50;99.90;;;;;;5046825;28;20376;-81
2022/06/15 04:41:07;;;;;;;12.77;4.15;;;10.80;99.90;;;;;;5050126;28;20470;-81
2022/06/15 04:43:33;;;;;;;5.07;3.00;;;;;;;;;;5046277;28;20459;-81
2022/06/15 04:45:59;;;;;;;5.63;2.67;;;12.10;99.90;;;;;;5045848;28;20366;-82
2022/06/15 04:48:24;;;;;;;3.47;2.50;;;12.10;99.90;;;;;;5038977;28;20455;-82
2022/06/15 04:50:50;;;;;;;3.70;2.50;;;12.50;99.90;;;;;;5030623;28;20395;-82
2022/06/15 04:53:16;;;;;;;6.97;3.10;;;12.70;99.90;;;;;;5046883;28;20391;-82
2022/06/15 04:55:42;;;;;;;4.40;2.77;;;12.80;99.90;;;;;;5041669;28;20410;-82
2022/06/15 04:58:08;;;;;;;8.85;3.17;;;12.90;99.90;;;;;;5047047;28;20473;-83
2022/06/15 05:00:37;;;;;;;3.60;2.50;;;13.00;99.90;;;;;;5044686;28;20474;-82
2022/06/15 05:03:03;;;;;;;4.15;2.65;;;12.90;99.90;;;;;;5043350;28;20397;-82
2022/06/15 05:05:30;;;;;;;4.05;2.55;;;13.00;99.90;;;;;;5040408;28;20433;-82
2022/06/15 05:07:55;;;;;;;3.88;2.50;;;13.50;99.90;;;;;;5028526;28;20950;-82
2022/06/15 05:10:23;;;;;;;4.82;2.33;;;13.80;99.90;;;;;;5044451;28;20384;-83
2022/06/15 05:12:49;;;;;;;2.90;2.30;;;14.10;99.90;;;;;;5043551;28;20376;-83
2022/06/15 05:15:16;;;;;;;4.47;2.40;;;14.50;99.90;;;;;;5046015;28;20399;-83
2022/06/15 05:17:43;;;;;;;12.65;3.35;;;14.90;99.90;;;;;;5047945;28;20372;-82
2022/06/15 05:20:13;;;;;;;17.08;3.70;;;15.40;99.90;;;;;;5044024;28;20392;-82
2022/06/15 05:22:39;;;;;;;11.85;4.32;;;15.70;99.90;;;;;;5044405;28;21031;-84
2022/06/15 05:25:07;;;;;;;5.88;2.90;;;16.10;99.90;;;;;;5047497;28;20376;-83
2022/06/15 05:27:34;;;;;;;5.35;2.92;;;16.20;99.90;;;;;;5043508;28;20364;-83
2022/06/15 05:30:00;;;;;;;11.43;3.28;;;16.50;99.90;;;;;;5027825;28;20382;-83
2022/06/15 05:32:26;;;;;;;13.20;3.00;;;16.40;99.90;;;;;;5040135;28;20388;-82
2022/06/15 05:34:55;;;;;;;4.88;2.47;;;16.60;99.90;;;;;;5027559;28;20412;-83
2022/06/15 05:37:22;;;;;;;3.83;2.60;;;16.40;99.90;;;;;;5042477;28;20383;-83
2022/06/15 05:39:48;;;;;;;4.85;2.78;;;16.40;99.90;;;;;;5029229;28;20381;-83
2022/06/15 05:42:14;;;;;;;5.00;2.95;;;16.50;99.90;;;;;;5040008;28;20389;-83
2022/06/15 05:47:06;;;;;;;14.20;4.70;;;17.00;99.90;;;;;;5038580;28;20390;-83
2022/06/15 05:49:33;;;;;;;10.52;3.47;;;17.20;99.90;;;;;;5042232;28;20395;-83
2022/06/15 05:51:58;;;;;;;6.60;3.85;;;17.30;99.90;;;;;;5045169;28;20372;-84
2022/06/15 05:54:24;;;;;;;9.27;3.77;;;17.50;99.90;;;;;;5042996;28;21027;-83
2022/06/15 05:56:50;;;;;;;5.20;3.07;;;17.80;99.90;;;;;;5037183;28;20432;-84
2022/06/15 05:59:15;;;;;;;6.50;3.08;;;17.90;99.90;;;;;;5037516;28;20383;-83
2022/06/15 06:01:42;;;;;;;6.17;2.73;;;17.80;99.90;;;;;;5046001;28;20379;-83
2022/06/15 06:04:12;;;;;;;6.70;2.60;;;17.90;99.90;;;;;;5031829;28;20408;-83
2022/06/15 06:06:37;;;;;;;4.93;2.70;;;18.20;99.90;;;;;;5040823;28;20397;-83
2022/06/15 06:09:03;;;;;;;6.05;2.72;;;18.70;99.90;;;;;;5045285;28;20475;-84
2022/06/15 06:11:29;;;;;;;9.60;2.80;;;18.80;99.90;;;;;;5048390;28;20376;-84
2022/06/15 06:13:55;;;;;;;6.23;2.43;;;19.10;99.90;;;;;;5029691;28;20401;-84
2022/06/15 06:16:20;;;;;;;5.93;3.08;;;19.60;99.90;;;;;;5034468;28;20926;-84
2022/06/15 06:18:47;;;;;;;12.40;3.17;;;19.90;99.90;;;;;;5037091;28;20378;-84
2022/06/15 06:21:13;;;;;;;23.15;4.50;;;20.20;99.90;;;;;;5051616;28;20411;-84
2022/06/15 06:23:38;;;;;;;7.23;2.50;;;20.50;99.90;;;;;;5044774;28;20387;-83
2022/06/15 06:26:05;;;;;;;14.55;3.30;;;20.90;99.90;;;;;;5037888;28;20389;-83
2022/06/15 06:28:41;;;;;;;5.82;2.00;;;21.40;99.90;;;;;;5039287;28;20374;-84
2022/06/15 06:31:09;;;;;;;4.78;2.20;;;21.90;97.10;;;;;;5026759;28;20472;-84
2022/06/15 06:33:37;;;;;;;5.05;2.00;;;22.00;96.80;;;;;;5031437;28;20894;-86
2022/06/15 06:36:15;;;;;;;5.55;2.08;;;22.00;96.90;;;;;;5040680;28;20405;-84
2022/06/15 06:38:40;;;;;;;3.95;1.90;;;21.90;96.60;;;;;;5046747;28;20402;-85
2022/06/15 06:41:06;;;;;;;3.97;1.90;;;21.80;96.20;;;;;;5030115;28;20377;-85
2022/06/15 06:43:32;;;;;;;3.97;2.13;;;21.50;96.00;;;;;;5026677;28;20740;-84
2022/06/15 06:45:57;;;;;;;4.63;1.75;;;21.40;96.50;;;;;;5043767;28;20837;-85
2022/06/15 06:48:23;;;;;;;5.77;2.43;;;21.30;98.10;;;;;;5043424;28;20420;-84
2022/06/15 06:50:51;;;;;;;3.90;2.00;;;21.30;96.90;;;;;;5046946;28;20399;-84
2022/06/15 06:53:18;;;;;;;3.88;1.90;;;21.60;96.30;;;;;;5040869;28;20372;-84
2022/06/15 06:55:44;;;;;;;3.95;2.28;;;21.80;95.90;;;;;;5041735;28;20403;-85
2022/06/15 06:58:09;;;;;;;8.07;2.40;;;22.40;95.30;;;;;;5042151;28;20378;-86
2022/06/15 07:00:38;;;;;;;3.60;2.08;;;23.30;99.90;;;;;;5041890;28;20392;-84
2022/06/15 07:03:05;;;;;;;16.50;2.83;;;23.40;99.90;;;;;;5036696;28;20454;-85
2022/06/15 07:05:35;;;;;;;6.28;2.20;;;;;;;;;;5039571;28;20387;-85
2022/06/15 07:08:01;;;;;;;4.40;1.73;;;;;;;;;;5041691;28;20372;-86
2022/06/15 07:10:27;;;;;;;5.32;1.73;;;24.00;89.00;;;;;;5030001;28;20794;-86
2022/06/15 07:12:54;;;;;;;6.13;2.13;;;24.00;90.40;;;;;;5045235;28;20384;-85
2022/06/15 07:15:20;;;;;;;4.80;1.90;;;23.90;90.50;;;;;;5032164;28;20444;-84
2022/06/15 07:17:45;;;;;;;7.80;2.50;;;23.80;91.80;;;;;;5029168;28;20431;-84
2022/06/15 07:20:12;;;;;;;5.18;1.77;;;23.70;91.40;;;;;;5040211;28;20486;-83
2022/06/15 07:22:38;;;;;;;4.47;1.60;;;23.50;92.30;;;;;;5040277;28;20375;-85
2022/06/15 07:25:06;;;;;;;10.00;2.53;;;23.60;90.20;;;;;;5039097;28;20440;-84
2022/06/15 07:27:36;;;;;;;5.05;1.77;;;23.80;91.40;;;;;;5041976;28;20377;-84
2022/06/15 07:30:05;;;;;;;6.00;2.13;;;24.10;91.40;;;;;;5043424;28;20483;-84
2022/06/15 07:32:31;;;;;;;5.00;1.75;;;24.20;90.30;;;;;;5034448;28;20384;-86
2022/06/15 07:34:58;;;;;;;4.47;1.60;;;24.10;87.10;;;;;;5030064;28;20771;-86
2022/06/15 07:37:23;;;;;;;4.70;2.30;;;24.00;87.50;;;;;;5038792;28;20388;-86
2022/06/15 07:39:49;;;;;;;3.28;1.80;;;23.80;86.50;;;;;;5045332;28;20380;-84
2022/06/15 07:42:15;;;;;;;5.65;2.10;;;23.50;87.90;;;;;;5031014;28;20799;-83
2022/06/15 07:44:40;;;;;;;4.07;2.00;;;23.10;88.10;;;;;;5041125;28;20784;-82
2022/06/15 07:49:55;;;;;;;5.23;2.10;;;22.90;89.30;;;;;;5037220;28;20408;-85
2022/06/15 07:52:26;;;;;;;4.68;2.30;;;22.90;91.80;;;;;;5044025;28;20404;-85
2022/06/15 07:54:57;;;;;;;5.75;2.40;;;23.10;90.80;;;;;;5038882;28;20405;-86
2022/06/15 07:57:23;;;;;;;4.13;2.20;;;23.30;91.50;;;;;;5038619;28;20380;-84
2022/06/15 07:59:49;;;;;;;4.53;2.27;;;23.50;90.20;;;;;;5029923;28;20373;-85
2022/06/15 08:02:16;;;;;;;6.67;2.43;;;23.70;90.90;;;;;;5040309;28;20416;-85
2022/06/15 08:04:42;;;;;;;6.78;2.15;;;23.80;90.40;;;;;;5039550;28;20407;-85
2022/06/15 08:07:10;;;;;;;4.30;1.90;;;23.80;89.50;;;;;;5047576;28;20420;-85
2022/06/15 08:09:36;;;;;;;5.00;2.03;;;23.80;90.20;;;;;;5042635;28;20383;-84
2022/06/15 08:12:11;;;;;;;5.25;2.00;;;23.90;90.10;;;;;;5041826;28;20886;-84
2022/06/15 08:14:42;;;;;;;8.13;2.10;;;24.10;90.40;;;;;;5043894;28;20413;-83
2022/06/15 08:17:12;;;;;;;8.23;2.20;;;24.20;88.20;;;;;;5030520;28;20818;-85
2022/06/15 08:19:42;;;;;;;6.90;2.10;;;24.10;89.50;;;;;;5040103;28;20476;-86
2022/06/15 08:22:08;;;;;;;3.70;1.70;;;24.20;88.00;;;;;;5033613;28;20382;-86
2022/06/15 08:24:35;;;;;;;21.42;3.10;;;24.30;82.50;;;;;;5039710;28;20475;-86
2022/06/15 08:27:01;;;;;;;67.28;8.63;;;24.20;83.50;;;;;;5040427;28;20968;-86
2022/06/15 08:29:28;;;;;;;15.57;2.70;;;23.90;84.40;;;;;;5033982;28;20468;-86
2022/06/15 08:31:57;;;;;;;4.63;1.70;;;23.80;85.00;;;;;;5043939;28;20394;-85
2022/06/15 08:34:28;;;;;;;6.57;2.07;;;23.60;84.60;;;;;;5038311;28;20393;-85
2022/06/15 08:36:55;;;;;;;14.15;2.60;;;23.60;88.40;;;;;;5043294;28;20493;-85
2022/06/15 08:39:20;;;;;;;5.50;1.80;;;23.90;87.30;;;;;;5033599;28;20466;-85
2022/06/15 08:42:16;;;;;;;3.35;1.50;;;24.00;87.90;;;;;;5037269;28;20880;-85
2022/06/15 08:45:06;;;;;;;4.97;1.80;;;24.20;87.20;;;;;;5047365;28;20384;-85
2022/06/15 08:47:38;;;;;;;5.83;1.93;;;24.50;86.30;;;;;;5030788;28;20392;-84
2022/06/15 08:50:37;;;;;;;4.38;1.85;;;24.70;83.30;;;;;;5037242;28;20481;-86
2022/06/15 08:53:12;;;;;;;7.25;1.95;;;24.80;83.70;;;;;;5033801;28;20401;-86
2022/06/15 08:55:46;;;;;;;5.60;2.33;;;24.60;82.50;;;;;;5036390;28;20407;-85
2022/06/15 08:58:21;;;;;;;6.10;2.05;;;24.40;83.40;;;;;;5042153;28;20380;-87
2022/06/15 09:00:48;;;;;;;6.88;2.00;;;24.40;84.20;;;;;;5044255;28;20885;-85
2022/06/15 09:03:52;;;;;;;6.35;2.10;;;24.50;85.00;;;;;;5044005;28;20932;-86
2022/06/15 09:06:27;;;;;;;3.90;1.73;;;24.60;81.40;;;;;;5034732;28;20411;-86
2022/06/15 09:08:56;;;;;;;6.20;2.40;;;24.60;81.90;;;;;;5044116;28;20388;-86
2022/06/15 09:11:33;;;;;;;6.88;2.20;;;24.10;81.90;;;;;;5046273;28;20384;-85
2022/06/15 09:14:19;;;;;;;6.35;2.42;;;23.80;83.20;;;;;;5041568;28;20746;-86
2022/06/15 09:17:19;;;;;;;4.95;2.40;;;23.50;85.90;;;;;;5046906;28;20880;-87
2022/06/15 09:20:10;;;;;;;6.50;2.30;;;23.00;85.20;;;;;;5036201;28;20411;-86
2022/06/15 09:22:44;;;;;;;6.07;2.30;;;22.90;87.90;;;;;;5042369;28;20415;-84
2022/06/15 09:25:34;;;;;;;6.20;2.50;;;23.40;90.00;;;;;;5042895;28;20894;-85
2022/06/15 09:28:06;;;;;;;5.85;2.45;;;23.90;88.20;;;;;;5041989;28;20789;-85
2022/06/15 09:30:35;;;;;;;5.50;2.42;;;24.40;85.80;;;;;;5044354;28;20473;-87
2022/06/15 09:33:21;;;;;;;7.90;2.30;;;24.40;82.80;;;;;;5042582;28;20918;-87
2022/06/15 09:36:02;;;;;;;12.00;2.95;;;24.40;83.10;;;;;;5034085;28;20840;-88
2022/06/15 09:38:32;;;;;;;6.82;2.67;;;24.30;83.30;;;;;;5028213;28;20390;-87
2022/06/15 09:41:21;;;;;;;6.75;2.40;;;24.20;81.90;;;;;;5028737;28;20381;-88
2022/06/15 09:44:04;;;;;;;7.47;2.42;;;23.80;82.80;;;;;;5030174;28;20520;-87
2022/06/15 09:46:42;;;;;;;5.23;1.93;;;23.60;83.90;;;;;;5048302;28;20380;-86
2022/06/15 09:49:25;;;;;;;6.00;2.10;;;23.30;83.60;;;;;;5034068;28;20401;-84
2022/06/15 09:52:17;;;;;;;4.45;2.05;;;23.40;87.30;;;;;;5033662;28;20404;-87
2022/06/15 09:54:44;;;;;;;5.60;2.25;;;23.70;84.30;;;;;;5042950;28;20414;-87
2022/06/15 09:57:11;;;;;;;6.97;2.20;;;24.00;83.00;;;;;;5046572;28;20889;-84
2022/06/15 09:59:37;;;;;;;7.40;2.50;;;24.30;85.00;;;;;;5032561;28;20408;-87
2022/06/15 10:02:32;;;;;;;7.30;2.15;;;24.60;84.60;;;;;;5031069;28;20365;-87
2022/06/15 10:05:00;;;;;;;6.78;2.35;;;24.90;82.30;;;;;;5028341;28;20385;-84
2022/06/15 10:07:28;;;;;;;8.17;2.30;;;24.90;80.40;;;;;;5027750;28;20385;-86
2022/06/15 10:10:28;;;;;;;5.10;2.10;;;24.50;80.60;;;;;;5028790;28;20879;-87
2022/06/15 10:13:05;;;;;;;5.82;2.28;;;24.10;82.50;;;;;;5023102;28;20446;-86
2022/06/15 10:15:41;;;;;;;5.18;2.30;;;24.20;83.00;;;;;;5042057;28;20475;-85
2022/06/15 10:18:21;;;;;;;3.47;2.03;;;24.00;83.50;;;;;;5031448;28;20397;-86
2022/06/15 10:21:08;;;;;;;5.93;2.13;;;24.00;82.10;;;;;;5029338;28;20383;-85
2022/06/15 10:23:53;;;;;;;6.78;2.22;;;24.30;82.60;;;;;;5030210;28;20432;-86
2022/06/15 10:26:29;;;;;;;8.90;2.13;;;24.40;84.90;;;;;;5031777;28;20396;-86
2022/06/15 10:28:57;;;;;;;15.32;3.17;;;24.60;84.80;;;;;;5046927;28;21216;-86
2022/06/15 10:31:27;;;;;;;5.63;2.28;;;24.90;83.00;;;;;;5040910;28;20391;-84
2022/06/15 10:33:54;;;;;;;5.65;2.38;;;25.10;81.40;;;;;;5034179;28;20503;-87
2022/06/15 10:36:33;;;;;;;5.75;2.40;;;25.30;80.90;;;;;;5027578;28;20855;-86
2022/06/15 10:39:25;;;;;;;4.85;2.28;;;25.10;78.30;;;;;;5041205;28;20862;-86
2022/06/15 10:41:51;;;;;;;6.85;2.25;;;24.70;78.50;;;;;;5042189;28;20394;-86
2022/06/15 10:44:40;;;;;;;4.95;2.17;;;24.50;82.80;;;;;;5027201;28;20381;-86
2022/06/15 10:47:18;;;;;;;7.93;2.13;;;24.50;80.40;;;;;;5037164;28;20871;-86
2022/06/15 10:49:55;;;;;;;9.73;2.50;;;24.60;82.70;;;;;;5039276;28;20933;-87
2022/06/15 10:52:28;;;;;;;6.40;2.10;;;24.60;81.80;;;;;;5031037;28;20477;-86
2022/06/15 11:04:26;;;;;;;6.90;2.25;;;25.90;79.00;;;;;;5047346;28;20382;-87
2022/06/15 11:06:58;;;;;;;5.43;1.70;;;25.70;81.10;;;;;;5050728;28;20954;-84
2022/06/15 11:09:27;;;;;;;2.95;1.70;;;25.90;80.80;;;;;;5052054;28;20379;-86
2022/06/15 11:11:55;;;;;;;29.15;4.82;;;26.20;80.60;;;;;;5050406;28;20475;-88
2022/06/15 11:14:49;;;;;;;7.15;1.80;;;26.30;80.60;;;;;;5041661;28;20390;-87
2022/06/15 11:20:22;;;;;;;5.47;2.08;;;26.00;80.60;;;;;;5048327;28;20445;-86
2022/06/15 11:22:50;;;;;;;4.78;2.08;;;26.10;79.10;;;;;;5050869;28;20383;-86
2022/06/15 11:25:22;;;;;;;8.18;2.17;;;26.20;77.30;;;;;;5050444;28;20406;-84
2022/06/15 11:27:54;;;;;;;12.02;2.38;;;26.00;78.60;;;;;;5044307;28;20474;-86
2022/06/15 11:30:28;;;;;;;8.25;1.98;;;26.00;77.10;;;;;;5038169;28;20907;-85
2022/06/15 11:33:00;;;;;;;3.35;1.85;;;25.90;79.20;;;;;;5042882;28;20385;-86
2022/06/15 11:35:32;;;;;;;29.30;4.13;;;26.10;77.80;;;;;;5036121;28;20463;-87
2022/06/15 11:38:24;;;;;;;4.80;1.70;;;26.10;78.80;;;;;;5033928;28;20391;-87
2022/06/15 11:40:54;;;;;;;3.85;1.73;;;26.00;77.20;;;;;;5031201;28;20415;-86
2022/06/15 11:43:29;;;;;;;4.45;1.70;;;26.10;78.90;;;;;;5034490;28;20390;-85
2022/06/15 11:46:19;;;;;;;6.35;2.08;;;26.10;78.00;;;;;;5031995;28;20836;-86
2022/06/15 11:48:45;;;;;;;6.90;2.05;;;26.20;79.60;;;;;;5046709;28;20384;-86
2022/06/15 11:51:27;;;;;;;5.23;1.87;;;26.20;79.70;;;;;;5047472;28;20403;-85
2022/06/15 11:54:12;;;;;;;4.57;1.77;;;26.30;77.30;;;;;;5037872;28;20386;-87
2022/06/15 11:56:54;;;;;;;2.72;1.63;;;26.30;76.10;;;;;;5044565;28;20941;-86
2022/06/15 12:00:02;;;;;;;3.50;1.90;;;26.30;75.80;;;;;;5045835;28;20753;-86
2022/06/15 12:02:37;;;;;;;4.40;1.88;;;26.10;76.60;;;;;;5047802;28;20384;-87
2022/06/15 12:05:34;;;;;;;6.68;1.98;;;26.00;75.50;;;;;;5030493;28;20935;-84
2022/06/15 12:08:15;;;;;;;5.03;1.90;;;25.90;78.00;;;;;;5036074;28;20405;-88
2022/06/15 12:11:00;;;;;;;4.60;1.70;;;25.90;75.90;;;;;;5035074;28;20428;-85
2022/06/15 12:13:38;;;;;;;13.70;2.20;;;26.00;75.50;;;;;;5037502;28;20725;-85
2022/06/15 12:16:29;;;;;;;5.20;1.80;;;25.90;76.20;;;;;;5030935;28;20444;-88
2022/06/15 12:19:17;;;;;;;5.90;2.40;;;25.90;75.90;;;;;;5044841;28;20388;-87
2022/06/15 12:21:49;;;;;;;4.40;1.80;;;25.90;75.60;;;;;;5037324;28;20404;-84
2022/06/15 12:24:50;;;;;;;9.90;2.25;;;25.90;77.30;;;;;;5034896;28;20725;-87
2022/06/15 12:27:30;;;;;;;4.03;1.85;;;25.90;76.10;;;;;;5045444;28;20896;-87
2022/06/15 12:30:02;;;;;;;5.15;1.90;;;26.00;77.50;;;;;;5054162;28;20476;-84
2022/06/15 12:32:51;;;;;;;4.30;1.83;;;26.00;77.90;;;;;;5049372;28;21572;-86
2022/06/15 12:35:38;;;;;;;4.40;1.80;;;26.00;77.30;;;;;;5042059;28;20887;-87
2022/06/15 12:38:30;;;;;;;4.97;1.90;;;25.80;74.10;;;;;;5030826;28;20388;-85
2022/06/15 12:44:05;;;;;;;5.33;2.17;;;25.20;75.60;;;;;;5032168;28;20389;-86
2022/06/15 12:46:33;;;;;;;4.65;1.98;;;24.90;75.40;;;;;;5048684;28;20388;-83
2022/06/15 12:49:21;;;;;;;5.57;1.80;;;25.10;76.40;;;;;;5049359;28;20720;-83
2022/06/15 12:52:05;;;;;;;4.27;1.90;;;25.20;75.30;;;;;;5048692;28;20419;-88
2022/06/15 12:55:04;;;;;;;5.90;2.10;;;25.30;76.90;;;;;;5050122;28;20510;-85
2022/06/15 12:57:45;;;;;;;5.15;1.88;;;25.40;77.70;;;;;;5049978;28;20399;-84
2022/06/15 13:00:27;;;;;;;4.35;2.00;;;25.60;76.60;;;;;;5050112;28;20380;-87
2022/06/15 13:03:27;;;;;;;5.10;2.30;;;25.60;77.60;;;;;;5042846;28;20385;-90
2022/06/15 13:06:32;;;;;;;5.80;2.00;;;25.70;75.60;;;;;;5048331;28;20414;-86
2022/06/15 13:09:21;;;;;;;4.05;1.70;;;25.50;75.70;;;;;;5054868;28;20400;-91
2022/06/15 13:12:07;;;;;;;5.78;1.75;;;25.50;77.40;;;;;;5052318;28;20404;-85
2022/06/15 13:14:44;;;;;;;5.68;2.08;;;25.60;76.70;;;;;;5049052;28;20415;-88
2022/06/15 13:17:15;;;;;;;6.45;2.08;;;25.60;75.30;;;;;;5049824;28;20461;-85
2022/06/15 13:20:04;;;;;;;5.05;1.70;;;25.60;77.00;;;;;;5049926;28;20452;-87
2022/06/15 13:22:37;;;;;;;4.85;2.08;;;25.70;74.50;;;;;;5050983;28;20380;-85
2022/06/15 13:25:03;;;;;;;4.80;1.83;;;25.90;72.60;;;;;;5050404;28;20387;-88
2022/06/15 13:27:37;;;;;;;3.83;1.63;;;25.80;74.20;;;;;;5051607;28;20395;-85
2022/06/15 13:30:30;;;;;;;6.93;1.77;;;25.90;75.20;;;;;;5049362;28;20419;-87
2022/06/15 13:32:57;;;;;;;4.03;1.60;;;26.00;71.60;;;;;;5045246;28;20389;-87
2022/06/15 13:35:44;;;;;;;4.00;1.60;;;26.00;72.30;;;;;;5044244;28;20425;-86
2022/06/15 13:38:34;;;;;;;6.43;1.90;;;26.10;71.80;;;;;;5045145;28;20403;-86
2022/06/15 13:41:00;;;;;;;5.30;1.80;;;26.00;73.30;;;;;;5040876;28;20388;-85
2022/06/15 13:43:46;;;;;;;5.00;1.90;;;25.70;72.60;;;;;;5043775;28;20480;-87